Weather at Sydney Kingsford Smith International Airport

Public forecast

Using degrees Celsius for public forecast. Weather courtesy of forecast.io.

Current aviation weather report (METAR) for Sydney Kingsford Smith International Airport

Retrieved 2020/11/27 03:30 UTC (2 hours ago):

YSSY 270330Z 08015KT CAVOK 26/18 Q1014

Aviation forecast (TAF) for Sydney Kingsford Smith International Airport

Retrieved 2020-11-27 03:35 UTC (2 hours ago):

TAF YSSY 270203Z 2703/2806 12013KT 9999 FEW030 FM270400 05014KT 9999 FEW030 FM271200 32007KT CAVOK FM280200 02014KT CAVOK